createdAt,value
2017-07-21T15:03:02.313Z,94868.87
2017-07-21T15:05:30.091Z,94866.16
2017-07-21T15:07:57.762Z,94867.84
2017-07-21T15:10:25.354Z,94861.14
2017-07-21T15:12:54.679Z,94861.55
2017-07-21T15:15:22.316Z,94861.39
2017-07-21T15:17:49.864Z,94863.19
2017-07-21T15:20:17.452Z,94861.38
2017-07-21T15:22:45.080Z,94856.08
2017-07-21T15:25:12.612Z,94865.90
2017-07-21T15:27:40.156Z,94862.98
2017-07-21T15:30:07.714Z,94860.92
2017-07-21T15:32:35.232Z,94861.63
2017-07-21T15:35:03.290Z,94858.83
2017-07-21T15:37:31.446Z,94865.52
2017-07-21T15:39:59.241Z,94865.47
2017-07-21T15:42:26.922Z,94858.50
2017-07-21T15:44:54.685Z,94863.80
2017-07-21T15:47:22.296Z,94859.20
2017-07-21T15:49:49.868Z,94866.42
2017-07-21T15:52:17.509Z,94865.17
2017-07-21T15:54:45.260Z,94858.63
2017-07-21T15:57:12.813Z,94859.33
2017-07-21T15:59:40.359Z,94862.61
2017-07-21T16:02:08.034Z,94862.52
2017-07-21T16:04:35.554Z,94862.30
2017-07-21T16:07:03.077Z,94862.92
2017-07-21T16:09:30.832Z,94869.55
2017-07-21T16:11:58.336Z,94870.80
2017-07-21T16:15:43.085Z,94867.47
2017-07-21T16:18:10.625Z,94872.55
2017-07-21T16:20:39.620Z,94868.14
2017-07-21T16:23:07.206Z,94866.38
2017-07-21T16:25:34.826Z,94875.55
2017-07-21T16:28:03.159Z,94874.83
2017-07-21T16:30:30.809Z,94873.25
2017-07-21T16:32:58.352Z,94871.76
2017-07-21T16:35:25.864Z,94877.11
2017-07-21T16:37:53.440Z,94882.34
2017-07-21T16:40:21.000Z,94877.18
2017-07-21T16:42:48.569Z,94883.69
2017-07-21T16:45:16.176Z,94885.09
2017-07-21T16:47:43.699Z,94885.23
2017-07-21T16:50:11.258Z,94890.16
2017-07-21T16:52:38.821Z,94898.03
2017-07-21T16:55:06.347Z,94898.27
2017-07-21T16:57:34.017Z,94896.29
2017-07-21T17:00:01.709Z,94899.60
2017-07-21T17:02:29.486Z,94901.48
2017-07-21T17:04:57.076Z,94904.22
2017-07-21T17:07:24.708Z,94907.81
2017-07-21T17:09:52.291Z,94911.16
2017-07-21T17:12:19.842Z,94920.27
2017-07-21T17:14:47.342Z,94919.02
2017-07-21T17:17:14.894Z,94922.48
2017-07-21T17:19:42.450Z,94925.07
2017-07-21T17:22:10.011Z,94925.25
2017-07-21T17:24:37.522Z,94929.94
2017-07-21T17:27:05.038Z,94927.15
2017-07-21T17:29:32.598Z,94935.90
2017-07-21T17:32:00.197Z,94938.53
2017-07-21T17:34:27.746Z,94931.05
2017-07-21T17:36:55.319Z,94933.61
2017-07-21T17:39:22.826Z,94939.66
2017-07-21T17:41:50.376Z,94937.09
2017-07-21T17:44:17.886Z,94942.69
2017-07-21T17:46:45.407Z,94939.27
2017-07-21T17:49:12.977Z,94942.19
2017-07-21T17:51:40.553Z,94945.56
2017-07-21T17:54:08.108Z,94940.36
2017-07-21T17:56:35.663Z,94950.65
2017-07-21T17:59:03.174Z,94950.57
2017-07-21T18:01:30.760Z,94956.16
2017-07-21T18:03:58.274Z,94958.89
2017-07-21T18:06:25.790Z,94967.95
2017-07-21T18:08:53.338Z,94968.57
2017-07-21T18:11:20.860Z,94964.55
2017-07-21T18:13:48.431Z,94972.06
2017-07-21T18:16:15.943Z,94977.14
2017-07-21T18:18:43.503Z,94977.64
2017-07-21T18:21:11.010Z,94980.88
2017-07-21T18:23:38.522Z,94981.27
2017-07-21T18:26:06.088Z,94977.06
2017-07-21T18:28:33.605Z,94973.36
2017-07-21T18:31:01.142Z,94973.69
2017-07-21T18:33:28.710Z,94989.38
2017-07-21T18:35:56.238Z,94979.59
2017-07-21T18:38:23.747Z,94984.41
2017-07-21T18:40:51.326Z,94984.80
2017-07-21T18:43:18.855Z,94995.96
2017-07-21T18:45:46.363Z,94994.81
2017-07-21T18:48:13.911Z,95004.52
2017-07-21T18:50:41.422Z,95012.05
2017-07-21T18:53:08.975Z,95008.66
2017-07-21T18:55:36.499Z,95011.44
2017-07-21T18:58:04.063Z,95018.23
2017-07-21T19:00:31.573Z,95003.63
2017-07-21T19:02:59.083Z,95018.06
2017-07-21T19:05:26.638Z,95018.92
2017-07-21T19:07:54.152Z,95018.70
2017-07-21T19:10:21.672Z,95016.25
2017-07-21T19:12:49.251Z,95023.48
2017-07-21T19:15:16.760Z,95019.81
2017-07-21T19:17:44.262Z,95021.54
2017-07-21T19:20:11.814Z,95030.97
2017-07-21T19:22:39.346Z,95028.34
2017-07-21T19:25:06.879Z,95030.83
2017-07-21T19:27:34.458Z,95030.70
2017-07-21T19:30:01.974Z,95041.06
2017-07-21T19:32:29.535Z,95031.97
2017-07-21T19:34:57.050Z,95041.46
2017-07-21T19:37:24.555Z,95050.22
2017-07-21T19:39:52.110Z,95046.97
2017-07-21T19:42:19.616Z,95043.62
2017-07-21T19:44:47.135Z,95030.16
2017-07-21T19:47:14.684Z,95029.16
2017-07-21T19:51:08.783Z,95021.79
2017-07-21T19:53:36.291Z,94971.56
2017-07-21T19:56:03.794Z,95026.67
2017-07-21T19:58:31.429Z,95005.95
2017-07-21T20:00:59.172Z,95021.34
2017-07-21T20:03:26.684Z,95020.33
2017-07-21T20:05:54.246Z,95025.94
2017-07-21T20:08:21.761Z,95029.30
2017-07-21T20:10:49.335Z,95028.48
2017-07-21T20:13:16.855Z,95023.15
2017-07-21T20:15:44.387Z,95032.08
2017-07-21T20:18:11.947Z,95027.30
2017-07-21T20:20:39.454Z,95036.30
2017-07-21T20:23:06.994Z,95034.91
2017-07-21T20:25:34.543Z,95028.12
2017-07-21T20:28:02.051Z,95035.77
2017-07-21T20:30:29.632Z,95023.52
2017-07-21T20:32:57.150Z,95032.16
2017-07-21T20:35:24.665Z,95023.16
2017-07-21T20:37:52.218Z,95055.64
2017-07-21T20:40:19.730Z,95040.15
2017-07-21T20:42:47.281Z,95019.44
2017-07-21T20:45:14.844Z,95033.95
2017-07-21T20:47:42.439Z,95027.19
2017-07-21T20:50:09.980Z,95021.50
2017-07-21T20:52:37.477Z,95032.80
2017-07-21T20:55:05.033Z,95028.03
2017-07-21T20:57:32.533Z,95034.55
2017-07-21T21:00:00.071Z,95037.16
2017-07-21T21:02:27.605Z,95031.61
2017-07-21T21:04:55.101Z,95041.55
2017-07-21T21:07:22.701Z,95035.30
2017-07-21T21:09:50.254Z,95004.75
2017-07-21T21:12:17.793Z,95040.64
2017-07-21T21:14:45.287Z,95036.80
2017-07-21T21:17:12.835Z,95022.02
2017-07-21T21:19:42.260Z,95024.97
2017-07-21T21:22:09.761Z,95040.81
2017-07-21T21:24:37.326Z,95051.12
2017-07-21T21:27:04.821Z,95050.50
2017-07-21T21:29:32.323Z,95046.85
2017-07-21T21:31:59.866Z,95048.05
2017-07-21T21:34:27.361Z,95042.27
2017-07-21T21:36:54.870Z,95048.87
2017-07-21T21:39:22.429Z,95038.56
2017-07-21T21:41:49.930Z,95043.11
2017-07-21T21:44:17.433Z,95033.33
2017-07-21T21:46:44.982Z,95028.27
2017-07-21T21:49:12.485Z,95003.27
2017-07-21T21:51:39.988Z,95051.08
2017-07-21T21:54:07.546Z,95056.53
2017-07-21T21:56:35.040Z,95050.98
2017-07-21T21:59:02.549Z,95052.61
2017-07-21T22:01:30.139Z,95044.25
2017-07-21T22:03:57.648Z,95053.31
2017-07-21T22:06:25.165Z,95041.20
2017-07-21T22:08:52.773Z,95046.66
2017-07-21T22:11:20.273Z,95046.27
2017-07-21T22:13:47.799Z,95046.83
2017-07-21T22:16:15.353Z,95052.64
2017-07-21T22:18:42.898Z,95029.52
2017-07-21T22:21:10.441Z,95063.64
2017-07-21T22:23:37.973Z,95057.00
2017-07-21T22:26:05.471Z,95048.19
2017-07-21T22:28:33.034Z,95055.46
2017-07-21T22:31:00.653Z,95055.69
2017-07-21T22:33:28.149Z,95039.25
2017-07-21T22:35:55.689Z,95059.12
2017-07-21T22:38:23.237Z,95058.33
2017-07-21T22:40:50.754Z,95052.45
2017-07-21T22:43:18.269Z,95053.78
2017-07-21T22:45:45.805Z,95041.95
2017-07-21T22:48:13.336Z,95050.36
2017-07-21T22:50:40.902Z,95056.63
2017-07-21T22:53:08.456Z,95059.85
2017-07-21T22:55:35.977Z,95051.06
2017-07-21T22:58:03.527Z,95059.80
2017-07-21T23:00:31.081Z,95060.94
2017-07-21T23:02:58.627Z,95061.34
2017-07-21T23:05:26.266Z,95062.42
2017-07-21T23:07:53.821Z,95058.25
2017-07-21T23:10:21.348Z,95064.87
2017-07-21T23:12:48.873Z,95064.05
2017-07-21T23:15:16.445Z,95060.84
2017-07-21T23:17:43.942Z,95033.53
2017-07-21T23:20:11.444Z,95060.05
2017-07-21T23:22:38.980Z,95061.63
2017-07-21T23:25:06.480Z,95064.13
2017-07-21T23:27:34.568Z,95064.14
2017-07-21T23:30:02.082Z,95059.17
2017-07-21T23:32:29.590Z,95073.55
2017-07-21T23:34:57.197Z,95068.64
2017-07-21T23:37:24.699Z,95060.13
2017-07-21T23:39:52.205Z,95084.11
2017-07-21T23:42:19.746Z,95083.55
2017-07-21T23:44:47.285Z,95082.41
2017-07-21T23:47:14.788Z,95059.86
2017-07-21T23:49:42.337Z,95076.55
2017-07-21T23:52:09.833Z,95077.23
2017-07-21T23:54:37.334Z,95082.82
2017-07-21T23:57:04.917Z,95078.91
2017-07-21T23:59:32.456Z,95081.62
